Edmonton Stony Plain Alta., Canada
Current Conditions -  °F | °C
As of 6:20 PM on Friday 19 Dec 2014 (Local Time) from CZVL Reporting Station
Haze Haze  
Wind Chill:   Ceiling: 6000
Heat Index: 16°   Visibility: 4mi
Dew Point: 14°   Wind: 5mph
Humidity: 93%   Direction: 20°NNE
Pressure: 29.67"   Gusts: NA
Location:  53.53°N, 114.1°W
Report Text: CZVL 200120Z AUTO 02004KT 330V070 4SM BR OVC060 M09/M10 A2967 RMK SLP093
Loading
Personal Weather Stations






























Interactive Weather Map New forecast layout! Learn more

10-Day Weather Forecast

Advertisements
Track Severe Weather on mobile